sensor_id;sensor_type;location;lat;lon;timestamp;temperature;humidity
2611;DHT22;5612;51.134;17.058;2023-07-20T00:00:49;17.60;55.80
2611;DHT22;5612;51.134;17.058;2023-07-20T00:03:20;17.70;20.70
2611;DHT22;5612;51.134;17.058;2023-07-20T00:05:50;17.60;66.10
2611;DHT22;5612;51.134;17.058;2023-07-20T00:08:19;17.60;51.20
2611;DHT22;5612;51.134;17.058;2023-07-20T00:10:48;17.70;82.50
2611;DHT22;5612;51.134;17.058;2023-07-20T00:13:17;17.60;68.10
2611;DHT22;5612;51.134;17.058;2023-07-20T00:15:50;17.60;84.70
2611;DHT22;5612;51.134;17.058;2023-07-20T00:18:19;17.60;94.30
2611;DHT22;5612;51.134;17.058;2023-07-20T00:20:49;17.50;99.90
2611;DHT22;5612;51.134;17.058;2023-07-20T00:23:18;17.50;99.90
2611;DHT22;5612;51.134;17.058;2023-07-20T00:25:48;17.50;99.90
2611;DHT22;5612;51.134;17.058;2023-07-20T00:28:17;17.50;99.90
2611;DHT22;5612;51.134;17.058;2023-07-20T00:30:46;17.40;99.90
2611;DHT22;5612;51.134;17.058;2023-07-20T00:33:17;17.30;99.90
2611;DHT22;5612;51.134;17.058;2023-07-20T00:35:46;17.20;99.90
2611;DHT22;5612;51.134;17.058;2023-07-20T00:38:15;17.20;99.90
2611;DHT22;5612;51.134;17.058;2023-07-20T00:40:44;17.10;99.90
2611;DHT22;5612;51.134;17.058;2023-07-20T00:43:13;17.10;99.90
2611;DHT22;5612;51.134;17.058;2023-07-20T00:45:42;17.00;99.90
2611;DHT22;5612;51.134;17.058;2023-07-20T00:48:13;17.00;99.90
2611;DHT22;5612;51.134;17.058;2023-07-20T00:50:44;17.00;99.90
2611;DHT22;5612;51.134;17.058;2023-07-20T00:53:13;17.20;99.90
2611;DHT22;5612;51.134;17.058;2023-07-20T00:55:42;17.40;99.90
2611;DHT22;5612;51.134;17.058;2023-07-20T00:58:11;17.70;99.90
2611;DHT22;5612;51.134;17.058;2023-07-20T01:00:40;17.80;99.90
2611;DHT22;5612;51.134;17.058;2023-07-20T01:03:09;17.80;99.90
2611;DHT22;5612;51.134;17.058;2023-07-20T01:05:45;17.90;99.90
2611;DHT22;5612;51.134;17.058;2023-07-20T01:08:21;17.90;99.90
2611;DHT22;5612;51.134;17.058;2023-07-20T01:10:56;17.70;99.90
2611;DHT22;5612;51.134;17.058;2023-07-20T01:13:26;17.60;99.90
2611;DHT22;5612;51.134;17.058;2023-07-20T01:15:57;17.70;99.90
2611;DHT22;5612;51.134;17.058;2023-07-20T01:18:29;17.60;99.90
2611;DHT22;5612;51.134;17.058;2023-07-20T01:21:02;17.70;99.90
2611;DHT22;5612;51.134;17.058;2023-07-20T01:26:50;17.90;99.90
2611;DHT22;5612;51.134;17.058;2023-07-20T01:29:43;17.80;99.90
2611;DHT22;5612;51.134;17.058;2023-07-20T01:32:24;17.80;99.90
2611;DHT22;5612;51.134;17.058;2023-07-20T01:34:55;17.70;99.90
2611;DHT22;5612;51.134;17.058;2023-07-20T01:37:26;17.80;99.90
2611;DHT22;5612;51.134;17.058;2023-07-20T01:39:58;17.60;89.70
2611;DHT22;5612;51.134;17.058;2023-07-20T01:42:29;17.60;96.00
2611;DHT22;5612;51.134;17.058;2023-07-20T01:44:58;17.60;99.90
2611;DHT22;5612;51.134;17.058;2023-07-20T01:47:28;17.40;54.40
2611;DHT22;5612;51.134;17.058;2023-07-20T01:49:57;17.30;99.90
2611;DHT22;5612;51.134;17.058;2023-07-20T01:52:26;17.30;99.90
2611;DHT22;5612;51.134;17.058;2023-07-20T01:54:55;17.30;99.90
2611;DHT22;5612;51.134;17.058;2023-07-20T01:57:24;17.20;99.90
2611;DHT22;5612;51.134;17.058;2023-07-20T01:59:53;17.20;99.90
2611;DHT22;5612;51.134;17.058;2023-07-20T02:02:25;17.10;99.90
2611;DHT22;5612;51.134;17.058;2023-07-20T02:04:56;17.00;99.90
2611;DHT22;5612;51.134;17.058;2023-07-20T02:07:25;17.00;99.90
2611;DHT22;5612;51.134;17.058;2023-07-20T02:09:54;17.20;99.90
2611;DHT22;5612;51.134;17.058;2023-07-20T02:12:23;17.20;99.90
2611;DHT22;5612;51.134;17.058;2023-07-20T02:14:52;17.20;99.90
2611;DHT22;5612;51.134;17.058;2023-07-20T02:17:21;17.20;99.90
2611;DHT22;5612;51.134;17.058;2023-07-20T02:19:52;17.20;99.90
2611;DHT22;5612;51.134;17.058;2023-07-20T02:22:23;17.10;99.90
2611;DHT22;5612;51.134;17.058;2023-07-20T02:24:52;17.00;99.90
2611;DHT22;5612;51.134;17.058;2023-07-20T02:27:21;17.00;99.90
2611;DHT22;5612;51.134;17.058;2023-07-20T02:29:50;16.90;99.90
2611;DHT22;5612;51.134;17.058;2023-07-20T02:32:19;16.80;99.90
2611;DHT22;5612;51.134;17.058;2023-07-20T02:34:48;16.90;99.90
2611;DHT22;5612;51.134;17.058;2023-07-20T02:37:17;16.80;99.90
2611;DHT22;5612;51.134;17.058;2023-07-20T02:39:48;16.80;99.90
2611;DHT22;5612;51.134;17.058;2023-07-20T02:42:17;16.80;99.90
2611;DHT22;5612;51.134;17.058;2023-07-20T02:44:46;16.70;99.90
2611;DHT22;5612;51.134;17.058;2023-07-20T02:47:15;16.60;99.90
2611;DHT22;5612;51.134;17.058;2023-07-20T02:49:44;16.60;99.90
2611;DHT22;5612;51.134;17.058;2023-07-20T02:52:13;16.60;99.90
2611;DHT22;5612;51.134;17.058;2023-07-20T02:54:42;16.60;99.90
2611;DHT22;5612;51.134;17.058;2023-07-20T02:57:12;16.60;99.90
2611;DHT22;5612;51.134;17.058;2023-07-20T02:59:41;16.60;99.90
2611;DHT22;5612;51.134;17.058;2023-07-20T03:02:10;16.50;99.90
2611;DHT22;5612;51.134;17.058;2023-07-20T03:04:39;16.50;99.90
2611;DHT22;5612;51.134;17.058;2023-07-20T03:07:08;16.50;99.90
2611;DHT22;5612;51.134;17.058;2023-07-20T03:09:37;16.50;99.90
2611;DHT22;5612;51.134;17.058;2023-07-20T03:12:07;16.40;99.90
2611;DHT22;5612;51.134;17.058;2023-07-20T03:14:37;16.50;99.90
2611;DHT22;5612;51.134;17.058;2023-07-20T03:17:06;16.50;99.90
2611;DHT22;5612;51.134;17.058;2023-07-20T03:19:36;16.40;99.90
2611;DHT22;5612;51.134;17.058;2023-07-20T03:22:05;16.40;99.90
2611;DHT22;5612;51.134;17.058;2023-07-20T03:24:33;16.40;99.90
2611;DHT22;5612;51.134;17.058;2023-07-20T03:27:02;16.50;99.90
2611;DHT22;5612;51.134;17.058;2023-07-20T03:29:31;16.40;99.90
2611;DHT22;5612;51.134;17.058;2023-07-20T03:32:02;16.40;99.90
2611;DHT22;5612;51.134;17.058;2023-07-20T03:34:31;16.50;99.90
2611;DHT22;5612;51.134;17.058;2023-07-20T03:36:59;16.60;99.90
2611;DHT22;5612;51.134;17.058;2023-07-20T03:39:28;16.60;99.90
2611;DHT22;5612;51.134;17.058;2023-07-20T03:41:58;16.60;99.90
2611;DHT22;5612;51.134;17.058;2023-07-20T03:44:27;16.50;99.90
2611;DHT22;5612;51.134;17.058;2023-07-20T03:46:56;16.60;99.90
2611;DHT22;5612;51.134;17.058;2023-07-20T03:49:27;16.70;99.90
2611;DHT22;5612;51.134;17.058;2023-07-20T03:51:56;16.70;99.90
2611;DHT22;5612;51.134;17.058;2023-07-20T03:54:25;16.80;99.90
2611;DHT22;5612;51.134;17.058;2023-07-20T03:56:53;16.80;99.90
2611;DHT22;5612;51.134;17.058;2023-07-20T03:59:22;16.80;99.90
2611;DHT22;5612;51.134;17.058;2023-07-20T04:01:51;16.90;99.90
2611;DHT22;5612;51.134;17.058;2023-07-20T04:04:20;16.90;99.90
2611;DHT22;5612;51.134;17.058;2023-07-20T04:06:51;16.90;99.90
2611;DHT22;5612;51.134;17.058;2023-07-20T04:09:19;16.90;99.90
2611;DHT22;5612;51.134;17.058;2023-07-20T04:11:48;16.90;99.90
2611;DHT22;5612;51.134;17.058;2023-07-20T04:14:17;16.90;99.90
2611;DHT22;5612;51.134;17.058;2023-07-20T04:16:46;17.20;99.90
2611;DHT22;5612;51.134;17.058;2023-07-20T04:19:15;17.30;99.90
2611;DHT22;5612;51.134;17.058;2023-07-20T04:21:45;17.40;99.90
2611;DHT22;5612;51.134;17.058;2023-07-20T04:24:15;17.70;99.90
2611;DHT22;5612;51.134;17.058;2023-07-20T04:26:44;17.90;99.90
2611;DHT22;5612;51.134;17.058;2023-07-20T04:29:13;18.10;90.10
2611;DHT22;5612;51.134;17.058;2023-07-20T04:31:42;18.10;58.80
2611;DHT22;5612;51.134;17.058;2023-07-20T04:34:11;18.10;39.20
2611;DHT22;5612;51.134;17.058;2023-07-20T04:36:39;18.10;66.90
2611;DHT22;5612;51.134;17.058;2023-07-20T04:39:10;18.00;62.50
2611;DHT22;5612;51.134;17.058;2023-07-20T04:41:57;18.10;39.20
2611;DHT22;5612;51.134;17.058;2023-07-20T04:44:26;18.30;18.00
2611;DHT22;5612;51.134;17.058;2023-07-20T04:46:55;18.40;1.00
2611;DHT22;5612;51.134;17.058;2023-07-20T04:49:24;18.50;1.00
2611;DHT22;5612;51.134;17.058;2023-07-20T04:51:53;18.50;1.00
2611;DHT22;5612;51.134;17.058;2023-07-20T04:54:22;18.70;1.00
2611;DHT22;5612;51.134;17.058;2023-07-20T04:56:51;18.90;1.00
2611;DHT22;5612;51.134;17.058;2023-07-20T04:59:22;18.90;1.00
2611;DHT22;5612;51.134;17.058;2023-07-20T05:01:51;18.80;1.00
2611;DHT22;5612;51.134;17.058;2023-07-20T05:04:19;18.60;1.00
2611;DHT22;5612;51.134;17.058;2023-07-20T05:06:49;18.60;1.00
2611;DHT22;5612;51.134;17.058;2023-07-20T05:09:17;18.50;1.00
2611;DHT22;5612;51.134;17.058;2023-07-20T05:11:46;18.70;1.00
2611;DHT22;5612;51.134;17.058;2023-07-20T05:14:16;18.60;1.00
2611;DHT22;5612;51.134;17.058;2023-07-20T05:16:46;18.70;1.00
2611;DHT22;5612;51.134;17.058;2023-07-20T05:19:15;18.90;1.00
2611;DHT22;5612;51.134;17.058;2023-07-20T05:21:44;18.90;1.00
2611;DHT22;5612;51.134;17.058;2023-07-20T05:24:12;18.90;1.00
2611;DHT22;5612;51.134;17.058;2023-07-20T05:26:41;18.90;1.00
2611;DHT22;5612;51.134;17.058;2023-07-20T05:29:10;19.10;1.00
2611;DHT22;5612;51.134;17.058;2023-07-20T05:31:39;19.20;1.00
2611;DHT22;5612;51.134;17.058;2023-07-20T05:34:09;19.20;1.00
2611;DHT22;5612;51.134;17.058;2023-07-20T05:36:38;19.20;1.00
2611;DHT22;5612;51.134;17.058;2023-07-20T05:39:06;19.10;1.00
2611;DHT22;5612;51.134;17.058;2023-07-20T05:41:35;19.00;1.00
2611;DHT22;5612;51.134;17.058;2023-07-20T05:44:04;18.80;1.00
2611;DHT22;5612;51.134;17.058;2023-07-20T05:46:33;18.60;1.00
2611;DHT22;5612;51.134;17.058;2023-07-20T05:49:22;18.50;1.00
2611;DHT22;5612;51.134;17.058;2023-07-20T05:51:51;18.40;20.70
2611;DHT22;5612;51.134;17.058;2023-07-20T05:54:20;18.60;12.10
2611;DHT22;5612;51.134;17.058;2023-07-20T05:56:48;18.80;1.00
2611;DHT22;5612;51.134;17.058;2023-07-20T05:59:17;19.00;1.00
2611;DHT22;5612;51.134;17.058;2023-07-20T06:01:46;19.10;1.00
2611;DHT22;5612;51.134;17.058;2023-07-20T06:04:16;19.40;1.00
2611;DHT22;5612;51.134;17.058;2023-07-20T06:06:46;19.60;1.00
2611;DHT22;5612;51.134;17.058;2023-07-20T06:09:15;19.60;1.00
2611;DHT22;5612;51.134;17.058;2023-07-20T06:11:44;19.70;1.00
2611;DHT22;5612;51.134;17.058;2023-07-20T06:14:12;19.80;99.90
2611;DHT22;5612;51.134;17.058;2023-07-20T06:16:42;20.10;99.90
2611;DHT22;5612;51.134;17.058;2023-07-20T06:19:11;19.90;1.00
2611;DHT22;5612;51.134;17.058;2023-07-20T06:21:40;19.80;99.90
2611;DHT22;5612;51.134;17.058;2023-07-20T06:24:10;20.00;1.00
2611;DHT22;5612;51.134;17.058;2023-07-20T06:26:40;20.40;1.00
2611;DHT22;5612;51.134;17.058;2023-07-20T06:29:09;20.90;99.90
2611;DHT22;5612;51.134;17.058;2023-07-20T06:31:38;21.20;1.00
2611;DHT22;5612;51.134;17.058;2023-07-20T06:34:06;21.20;1.00
2611;DHT22;5612;51.134;17.058;2023-07-20T06:36:35;21.20;99.90
2611;DHT22;5612;51.134;17.058;2023-07-20T06:39:04;20.90;99.90
2611;DHT22;5612;51.134;17.058;2023-07-20T06:41:37;20.70;87.70
2611;DHT22;5612;51.134;17.058;2023-07-20T06:44:09;20.80;99.90
2611;DHT22;5612;51.134;17.058;2023-07-20T06:46:38;21.20;99.90
2611;DHT22;5612;51.134;17.058;2023-07-20T06:49:07;21.30;1.00
2611;DHT22;5612;51.134;17.058;2023-07-20T06:51:39;21.30;1.00
2611;DHT22;5612;51.134;17.058;2023-07-20T06:54:07;21.50;1.00
2611;DHT22;5612;51.134;17.058;2023-07-20T06:56:38;22.00;1.00
2611;DHT22;5612;51.134;17.058;2023-07-20T06:59:12;22.60;99.90
2611;DHT22;5612;51.134;17.058;2023-07-20T07:01:41;23.00;99.90
2611;DHT22;5612;51.134;17.058;2023-07-20T07:04:10;23.30;99.90
2611;DHT22;5612;51.134;17.058;2023-07-20T07:06:38;23.70;99.90
2611;DHT22;5612;51.134;17.058;2023-07-20T07:09:07;23.60;54.00
2611;DHT22;5612;51.134;17.058;2023-07-20T07:11:38;23.40;24.90
2611;DHT22;5612;51.134;17.058;2023-07-20T07:14:07;23.30;99.90
2611;DHT22;5612;51.134;17.058;2023-07-20T07:16:36;23.80;23.70
2611;DHT22;5612;51.134;17.058;2023-07-20T07:19:06;24.10;44.40
2611;DHT22;5612;51.134;17.058;2023-07-20T07:21:34;24.40;1.00
2611;DHT22;5612;51.134;17.058;2023-07-20T07:24:03;24.90;1.00
2611;DHT22;5612;51.134;17.058;2023-07-20T07:26:34;24.90;1.00
2611;DHT22;5612;51.134;17.058;2023-07-20T07:29:04;25.00;1.00
2611;DHT22;5612;51.134;17.058;2023-07-20T07:31:34;25.20;1.00
2611;DHT22;5612;51.134;17.058;2023-07-20T07:34:04;25.30;1.00
2611;DHT22;5612;51.134;17.058;2023-07-20T07:36:33;25.10;1.00
2611;DHT22;5612;51.134;17.058;2023-07-20T07:39:02;24.80;1.00
2611;DHT22;5612;51.134;17.058;2023-07-20T07:41:51;25.20;1.00
2611;DHT22;5612;51.134;17.058;2023-07-20T07:44:21;25.70;1.00
2611;DHT22;5612;51.134;17.058;2023-07-20T07:46:50;26.00;1.00
2611;DHT22;5612;51.134;17.058;2023-07-20T07:49:19;26.70;1.00
2611;DHT22;5612;51.134;17.058;2023-07-20T07:51:48;26.90;1.00
2611;DHT22;5612;51.134;17.058;2023-07-20T07:54:16;26.80;1.00
2611;DHT22;5612;51.134;17.058;2023-07-20T07:56:45;27.00;1.00
2611;DHT22;5612;51.134;17.058;2023-07-20T07:59:14;26.60;1.00
2611;DHT22;5612;51.134;17.058;2023-07-20T08:01:44;25.90;1.00
2611;DHT22;5612;51.134;17.058;2023-07-20T08:04:13;24.90;1.00
2611;DHT22;5612;51.134;17.058;2023-07-20T08:06:42;24.40;1.00
2611;DHT22;5612;51.134;17.058;2023-07-20T08:09:10;24.00;1.00
2611;DHT22;5612;51.134;17.058;2023-07-20T08:11:39;23.60;1.00
2611;DHT22;5612;51.134;17.058;2023-07-20T08:14:08;23.30;1.00
2611;DHT22;5612;51.134;17.058;2023-07-20T08:16:37;23.80;1.00
2611;DHT22;5612;51.134;17.058;2023-07-20T08:19:07;24.90;1.00
2611;DHT22;5612;51.134;17.058;2023-07-20T08:21:36;26.10;1.00
2611;DHT22;5612;51.134;17.058;2023-07-20T08:24:06;27.20;1.00
2611;DHT22;5612;51.134;17.058;2023-07-20T08:26:35;28.20;1.00
2611;DHT22;5612;51.134;17.058;2023-07-20T08:29:03;29.10;1.00
2611;DHT22;5612;51.134;17.058;2023-07-20T08:31:32;29.50;1.00
2611;DHT22;5612;51.134;17.058;2023-07-20T08:34:01;29.20;1.00
2611;DHT22;5612;51.134;17.058;2023-07-20T08:36:51;29.10;1.00
2611;DHT22;5612;51.134;17.058;2023-07-20T08:39:20;28.80;1.00
2611;DHT22;5612;51.134;17.058;2023-07-20T08:41:50;28.80;1.00
2611;DHT22;5612;51.134;17.058;2023-07-20T08:44:19;28.30;1.00
2611;DHT22;5612;51.134;17.058;2023-07-20T08:46:48;28.00;1.00
2611;DHT22;5612;51.134;17.058;2023-07-20T08:49:18;27.80;1.00
2611;DHT22;5612;51.134;17.058;2023-07-20T08:51:48;27.50;1.00
2611;DHT22;5612;51.134;17.058;2023-07-20T08:54:19;26.80;1.00
2611;DHT22;5612;51.134;17.058;2023-07-20T08:56:48;26.10;1.00
2611;DHT22;5612;51.134;17.058;2023-07-20T08:59:17;27.10;1.00
2611;DHT22;5612;51.134;17.058;2023-07-20T09:01:47;28.90;1.00
2611;DHT22;5612;51.134;17.058;2023-07-20T09:04:16;30.10;1.00
2611;DHT22;5612;51.134;17.058;2023-07-20T09:06:44;30.30;1.00
2611;DHT22;5612;51.134;17.058;2023-07-20T09:09:14;30.10;1.00
2611;DHT22;5612;51.134;17.058;2023-07-20T09:11:47;29.20;1.00
2611;DHT22;5612;51.134;17.058;2023-07-20T09:14:15;27.40;1.00
2611;DHT22;5612;51.134;17.058;2023-07-20T09:16:50;26.60;1.00
2611;DHT22;5612;51.134;17.058;2023-07-20T09:19:19;26.00;1.00
2611;DHT22;5612;51.134;17.058;2023-07-20T09:21:49;25.40;1.00
2611;DHT22;5612;51.134;17.058;2023-07-20T09:24:19;25.20;1.00
2611;DHT22;5612;51.134;17.058;2023-07-20T09:26:51;25.00;1.00
2611;DHT22;5612;51.134;17.058;2023-07-20T09:29:21;25.00;1.00
2611;DHT22;5612;51.134;17.058;2023-07-20T09:31:59;26.20;1.00
2611;DHT22;5612;51.134;17.058;2023-07-20T09:34:29;27.80;1.00
2611;DHT22;5612;51.134;17.058;2023-07-20T09:37:02;28.50;1.00
2611;DHT22;5612;51.134;17.058;2023-07-20T09:39:32;29.80;1.00
2611;DHT22;5612;51.134;17.058;2023-07-20T09:42:03;31.00;1.00
2611;DHT22;5612;51.134;17.058;2023-07-20T09:44:35;32.00;1.00
2611;DHT22;5612;51.134;17.058;2023-07-20T09:47:06;32.70;1.00
2611;DHT22;5612;51.134;17.058;2023-07-20T09:49:39;32.00;1.00
2611;DHT22;5612;51.134;17.058;2023-07-20T09:52:12;31.20;1.00
2611;DHT22;5612;51.134;17.058;2023-07-20T09:55:03;31.00;1.00
2611;DHT22;5612;51.134;17.058;2023-07-20T09:57:34;30.50;1.00
2611;DHT22;5612;51.134;17.058;2023-07-20T10:00:05;30.40;1.00
2611;DHT22;5612;51.134;17.058;2023-07-20T10:02:43;31.90;1.00
2611;DHT22;5612;51.134;17.058;2023-07-20T10:05:14;33.00;1.00
2611;DHT22;5612;51.134;17.058;2023-07-20T10:07:44;34.00;1.00
2611;DHT22;5612;51.134;17.058;2023-07-20T10:10:16;34.90;1.00
2611;DHT22;5612;51.134;17.058;2023-07-20T10:12:48;34.70;1.00
2611;DHT22;5612;51.134;17.058;2023-07-20T10:15:23;35.00;1.00
2611;DHT22;5612;51.134;17.058;2023-07-20T10:17:59;36.70;1.00
2611;DHT22;5612;51.134;17.058;2023-07-20T10:20:33;36.00;1.00
2611;DHT22;5612;51.134;17.058;2023-07-20T10:23:04;33.90;1.00
2611;DHT22;5612;51.134;17.058;2023-07-20T10:25:34;32.80;1.00
2611;DHT22;5612;51.134;17.058;2023-07-20T10:28:06;33.20;1.00
2611;DHT22;5612;51.134;17.058;2023-07-20T10:30:35;33.00;1.00
2611;DHT22;5612;51.134;17.058;2023-07-20T10:33:05;33.20;1.00
2611;DHT22;5612;51.134;17.058;2023-07-20T10:35:51;32.50;1.00
2611;DHT22;5612;51.134;17.058;2023-07-20T10:38:20;31.60;1.00
2611;DHT22;5612;51.134;17.058;2023-07-20T10:40:55;32.40;1.00
2611;DHT22;5612;51.134;17.058;2023-07-20T10:43:26;34.40;1.00
2611;DHT22;5612;51.134;17.058;2023-07-20T10:45:55;34.60;1.00
2611;DHT22;5612;51.134;17.058;2023-07-20T10:48:24;33.40;1.00
2611;DHT22;5612;51.134;17.058;2023-07-20T10:51:14;32.80;1.00
2611;DHT22;5612;51.134;17.058;2023-07-20T10:53:48;34.30;1.00
2611;DHT22;5612;51.134;17.058;2023-07-20T10:56:20;35.30;1.00
2611;DHT22;5612;51.134;17.058;2023-07-20T10:58:56;36.60;1.00
2611;DHT22;5612;51.134;17.058;2023-07-20T11:01:28;37.50;1.00
2611;DHT22;5612;51.134;17.058;2023-07-20T11:04:00;37.40;1.00
2611;DHT22;5612;51.134;17.058;2023-07-20T11:06:33;38.30;1.00
2611;DHT22;5612;51.134;17.058;2023-07-20T11:09:07;38.10;1.00
2611;DHT22;5612;51.134;17.058;2023-07-20T11:11:39;38.20;1.00
2611;DHT22;5612;51.134;17.058;2023-07-20T11:14:19;37.70;1.00
2611;DHT22;5612;51.134;17.058;2023-07-20T11:16:50;36.80;1.00
2611;DHT22;5612;51.134;17.058;2023-07-20T11:19:20;36.70;1.00
2611;DHT22;5612;51.134;17.058;2023-07-20T11:21:54;37.70;1.00
2611;DHT22;5612;51.134;17.058;2023-07-20T11:24:30;37.30;1.00
2611;DHT22;5612;51.134;17.058;2023-07-20T11:27:00;35.40;1.00
2611;DHT22;5612;51.134;17.058;2023-07-20T11:29:31;32.80;1.00
2611;DHT22;5612;51.134;17.058;2023-07-20T11:32:01;30.90;1.00
2611;DHT22;5612;51.134;17.058;2023-07-20T11:34:33;29.50;1.00
2611;DHT22;5612;51.134;17.058;2023-07-20T11:37:03;28.40;1.00
2611;DHT22;5612;51.134;17.058;2023-07-20T11:39:34;28.00;1.00
2611;DHT22;5612;51.134;17.058;2023-07-20T11:42:04;28.20;1.00
2611;DHT22;5612;51.134;17.058;2023-07-20T11:44:35;28.20;1.00
2611;DHT22;5612;51.134;17.058;2023-07-20T11:47:05;27.60;1.00
2611;DHT22;5612;51.134;17.058;2023-07-20T11:49:37;26.80;1.00
2611;DHT22;5612;51.134;17.058;2023-07-20T11:52:07;26.20;1.00
2611;DHT22;5612;51.134;17.058;2023-07-20T11:54:38;26.00;1.00
2611;DHT22;5612;51.134;17.058;2023-07-20T11:57:16;25.50;1.00
2611;DHT22;5612;51.134;17.058;2023-07-20T11:59:54;24.50;1.00
2611;DHT22;5612;51.134;17.058;2023-07-20T12:02:27;24.10;1.00
2611;DHT22;5612;51.134;17.058;2023-07-20T12:04:57;23.70;1.00
2611;DHT22;5612;51.134;17.058;2023-07-20T12:07:27;23.30;1.00
2611;DHT22;5612;51.134;17.058;2023-07-20T12:10:07;23.60;1.00
2611;DHT22;5612;51.134;17.058;2023-07-20T12:12:38;23.90;1.00
2611;DHT22;5612;51.134;17.058;2023-07-20T12:15:17;24.10;1.00
2611;DHT22;5612;51.134;17.058;2023-07-20T12:17:50;24.40;1.00
2611;DHT22;5612;51.134;17.058;2023-07-20T12:20:27;24.70;1.00
2611;DHT22;5612;51.134;17.058;2023-07-20T12:22:59;24.80;1.00
2611;DHT22;5612;51.134;17.058;2023-07-20T12:25:40;25.80;1.00
2611;DHT22;5612;51.134;17.058;2023-07-20T12:28:11;26.80;1.00
2611;DHT22;5612;51.134;17.058;2023-07-20T12:30:42;27.50;1.00
2611;DHT22;5612;51.134;17.058;2023-07-20T12:33:11;27.60;1.00
2611;DHT22;5612;51.134;17.058;2023-07-20T12:35:43;28.40;1.00
2611;DHT22;5612;51.134;17.058;2023-07-20T12:38:12;29.30;1.00
2611;DHT22;5612;51.134;17.058;2023-07-20T12:40:41;30.30;1.00
2611;DHT22;5612;51.134;17.058;2023-07-20T12:43:10;31.60;1.00
2611;DHT22;5612;51.134;17.058;2023-07-20T12:45:38;31.90;1.00
2611;DHT22;5612;51.134;17.058;2023-07-20T12:48:09;31.40;1.00
2611;DHT22;5612;51.134;17.058;2023-07-20T12:50:38;31.00;1.00
2611;DHT22;5612;51.134;17.058;2023-07-20T12:53:07;30.60;1.00
2611;DHT22;5612;51.134;17.058;2023-07-20T12:55:36;30.20;1.00
2611;DHT22;5612;51.134;17.058;2023-07-20T12:58:06;30.30;1.00
2611;DHT22;5612;51.134;17.058;2023-07-20T13:00:36;30.40;1.00
2611;DHT22;5612;51.134;17.058;2023-07-20T13:03:06;31.40;1.00
2611;DHT22;5612;51.134;17.058;2023-07-20T13:05:38;32.60;1.00
2611;DHT22;5612;51.134;17.058;2023-07-20T13:08:10;33.70;1.00
2611;DHT22;5612;51.134;17.058;2023-07-20T13:10:43;33.30;1.00
2611;DHT22;5612;51.134;17.058;2023-07-20T13:13:11;32.80;1.00
2611;DHT22;5612;51.134;17.058;2023-07-20T13:15:44;32.30;1.00
2611;DHT22;5612;51.134;17.058;2023-07-20T13:18:13;33.40;1.00
2611;DHT22;5612;51.134;17.058;2023-07-20T13:20:44;34.80;1.00
2611;DHT22;5612;51.134;17.058;2023-07-20T13:23:12;35.00;1.00
2611;DHT22;5612;51.134;17.058;2023-07-20T13:25:41;34.90;1.00
2611;DHT22;5612;51.134;17.058;2023-07-20T13:28:10;34.70;1.00
2611;DHT22;5612;51.134;17.058;2023-07-20T13:30:39;32.80;1.00
2611;DHT22;5612;51.134;17.058;2023-07-20T13:33:08;32.60;1.00
2611;DHT22;5612;51.134;17.058;2023-07-20T13:35:46;33.10;1.00
2611;DHT22;5612;51.134;17.058;2023-07-20T13:38:18;34.00;1.00
2611;DHT22;5612;51.134;17.058;2023-07-20T13:40:48;34.30;1.00
2611;DHT22;5612;51.134;17.058;2023-07-20T13:43:17;35.40;1.00
2611;DHT22;5612;51.134;17.058;2023-07-20T13:45:46;35.90;1.00
2611;DHT22;5612;51.134;17.058;2023-07-20T13:48:16;36.00;1.00
2611;DHT22;5612;51.134;17.058;2023-07-20T13:50:52;36.00;1.00
2611;DHT22;5612;51.134;17.058;2023-07-20T13:53:24;36.00;1.00
2611;DHT22;5612;51.134;17.058;2023-07-20T13:55:57;35.60;1.00
2611;DHT22;5612;51.134;17.058;2023-07-20T13:58:29;36.50;1.00
2611;DHT22;5612;51.134;17.058;2023-07-20T14:00:58;36.70;1.00
2611;DHT22;5612;51.134;17.058;2023-07-20T14:03:28;36.70;1.00
2611;DHT22;5612;51.134;17.058;2023-07-20T14:05:58;36.30;1.00
2611;DHT22;5612;51.134;17.058;2023-07-20T14:08:30;35.20;1.00
2611;DHT22;5612;51.134;17.058;2023-07-20T14:10:59;33.90;1.00
2611;DHT22;5612;51.134;17.058;2023-07-20T14:13:30;33.40;1.00
2611;DHT22;5612;51.134;17.058;2023-07-20T14:16:13;32.30;1.00
2611;DHT22;5612;51.134;17.058;2023-07-20T14:18:43;32.00;1.00
2611;DHT22;5612;51.134;17.058;2023-07-20T14:21:18;32.10;1.00
2611;DHT22;5612;51.134;17.058;2023-07-20T14:23:50;32.70;1.00
2611;DHT22;5612;51.134;17.058;2023-07-20T14:26:20;33.10;1.00
2611;DHT22;5612;51.134;17.058;2023-07-20T14:28:50;33.10;1.00
2611;DHT22;5612;51.134;17.058;2023-07-20T14:31:19;33.50;1.00
2611;DHT22;5612;51.134;17.058;2023-07-20T14:33:48;33.60;1.00
2611;DHT22;5612;51.134;17.058;2023-07-20T14:36:20;34.00;1.00
2611;DHT22;5612;51.134;17.058;2023-07-20T14:38:53;33.60;1.00
2611;DHT22;5612;51.134;17.058;2023-07-20T14:41:21;32.90;1.00
2611;DHT22;5612;51.134;17.058;2023-07-20T14:43:50;32.70;1.00
2611;DHT22;5612;51.134;17.058;2023-07-20T14:46:19;31.80;1.00
2611;DHT22;5612;51.134;17.058;2023-07-20T14:48:48;31.60;1.00
2611;DHT22;5612;51.134;17.058;2023-07-20T14:51:20;31.70;1.00
2611;DHT22;5612;51.134;17.058;2023-07-20T14:53:49;31.10;1.00
2611;DHT22;5612;51.134;17.058;2023-07-20T14:56:18;30.50;1.00
2611;DHT22;5612;51.134;17.058;2023-07-20T14:58:47;29.40;1.00
2611;DHT22;5612;51.134;17.058;2023-07-20T15:01:16;28.70;1.00
2611;DHT22;5612;51.134;17.058;2023-07-20T15:03:45;28.10;1.00
2611;DHT22;5612;51.134;17.058;2023-07-20T15:06:14;27.50;1.00
2611;DHT22;5612;51.134;17.058;2023-07-20T15:08:44;26.70;1.00
2611;DHT22;5612;51.134;17.058;2023-07-20T15:11:13;26.50;1.00
2611;DHT22;5612;51.134;17.058;2023-07-20T15:13:42;27.00;1.00
2611;DHT22;5612;51.134;17.058;2023-07-20T15:16:10;27.30;1.00
2611;DHT22;5612;51.134;17.058;2023-07-20T15:18:40;27.20;1.00
2611;DHT22;5612;51.134;17.058;2023-07-20T15:21:15;27.30;1.00
2611;DHT22;5612;51.134;17.058;2023-07-20T15:23:45;27.10;1.00
2611;DHT22;5612;51.134;17.058;2023-07-20T15:26:14;26.90;1.00
2611;DHT22;5612;51.134;17.058;2023-07-20T15:28:42;26.90;1.00
2611;DHT22;5612;51.134;17.058;2023-07-20T15:31:11;26.90;1.00
2611;DHT22;5612;51.134;17.058;2023-07-20T15:33:40;27.20;1.00
2611;DHT22;5612;51.134;17.058;2023-07-20T15:36:08;27.90;1.00
2611;DHT22;5612;51.134;17.058;2023-07-20T15:38:37;28.30;1.00
2611;DHT22;5612;51.134;17.058;2023-07-20T15:41:11;28.30;1.00
2611;DHT22;5612;51.134;17.058;2023-07-20T15:43:42;28.30;1.00
2611;DHT22;5612;51.134;17.058;2023-07-20T15:46:41;28.30;1.00
2611;DHT22;5612;51.134;17.058;2023-07-20T15:49:12;28.10;1.00
2611;DHT22;5612;51.134;17.058;2023-07-20T15:51:41;27.60;1.00
2611;DHT22;5612;51.134;17.058;2023-07-20T15:54:10;27.50;1.00
2611;DHT22;5612;51.134;17.058;2023-07-20T15:56:42;27.30;1.00
2611;DHT22;5612;51.134;17.058;2023-07-20T15:59:12;27.50;1.00
2611;DHT22;5612;51.134;17.058;2023-07-20T16:01:41;27.20;1.00
2611;DHT22;5612;51.134;17.058;2023-07-20T16:04:13;26.80;1.00
2611;DHT22;5612;51.134;17.058;2023-07-20T16:06:42;26.50;1.00
2611;DHT22;5612;51.134;17.058;2023-07-20T16:09:11;26.40;1.00
2611;DHT22;5612;51.134;17.058;2023-07-20T16:11:43;26.40;1.00
2611;DHT22;5612;51.134;17.058;2023-07-20T16:14:12;26.20;1.00
2611;DHT22;5612;51.134;17.058;2023-07-20T16:16:42;26.20;1.00
2611;DHT22;5612;51.134;17.058;2023-07-20T16:19:11;26.30;1.00
2611;DHT22;5612;51.134;17.058;2023-07-20T16:21:40;26.30;1.00